sensor_id;sensor_type;location;lat;lon;timestamp;P1;durP1;ratioP1;P2;durP2;ratioP2
15616;SDS011;7908;51.688;7.130;2022-11-12T00:01:55;9.13;;;5.70;;
15616;SDS011;7908;51.688;7.130;2022-11-12T00:04:24;10.33;;;7.63;;
15616;SDS011;7908;51.688;7.130;2022-11-12T00:06:54;10.27;;;7.43;;
15616;SDS011;7908;51.688;7.130;2022-11-12T00:09:23;607.53;;;548.90;;
15616;SDS011;7908;51.688;7.130;2022-11-12T00:11:52;10.47;;;5.80;;
15616;SDS011;7908;51.688;7.130;2022-11-12T00:14:22;7.90;;;5.27;;
15616;SDS011;7908;51.688;7.130;2022-11-12T00:16:51;8.13;;;5.80;;
15616;SDS011;7908;51.688;7.130;2022-11-12T00:19:20;6.87;;;5.20;;
15616;SDS011;7908;51.688;7.130;2022-11-12T00:21:49;8.43;;;5.23;;
15616;SDS011;7908;51.688;7.130;2022-11-12T00:24:19;7.40;;;5.10;;
15616;SDS011;7908;51.688;7.130;2022-11-12T00:26:48;8.77;;;7.37;;
15616;SDS011;7908;51.688;7.130;2022-11-12T00:29:17;6.93;;;4.53;;
15616;SDS011;7908;51.688;7.130;2022-11-12T00:31:45;7.27;;;4.20;;
15616;SDS011;7908;51.688;7.130;2022-11-12T00:34:16;8.20;;;5.13;;
15616;SDS011;7908;51.688;7.130;2022-11-12T00:36:45;10.43;;;6.73;;
15616;SDS011;7908;51.688;7.130;2022-11-12T00:39:14;8.60;;;7.03;;
15616;SDS011;7908;51.688;7.130;2022-11-12T00:41:44;8.57;;;5.47;;
15616;SDS011;7908;51.688;7.130;2022-11-12T00:44:13;9.17;;;6.23;;
15616;SDS011;7908;51.688;7.130;2022-11-12T00:46:41;8.63;;;5.57;;
15616;SDS011;7908;51.688;7.130;2022-11-12T00:49:13;10.93;;;6.77;;
15616;SDS011;7908;51.688;7.130;2022-11-12T00:51:42;9.87;;;6.40;;
15616;SDS011;7908;51.688;7.130;2022-11-12T00:54:11;7.73;;;5.47;;
15616;SDS011;7908;51.688;7.130;2022-11-12T00:56:40;10.43;;;6.67;;
15616;SDS011;7908;51.688;7.130;2022-11-12T00:59:13;10.10;;;5.07;;
15616;SDS011;7908;51.688;7.130;2022-11-12T01:01:42;8.40;;;4.53;;
15616;SDS011;7908;51.688;7.130;2022-11-12T01:04:11;10.60;;;5.30;;
15616;SDS011;7908;51.688;7.130;2022-11-12T01:06:40;6.67;;;4.77;;
15616;SDS011;7908;51.688;7.130;2022-11-12T01:09:09;6.80;;;4.70;;
15616;SDS011;7908;51.688;7.130;2022-11-12T01:11:39;8.00;;;5.17;;
15616;SDS011;7908;51.688;7.130;2022-11-12T01:14:09;7.33;;;5.30;;
15616;SDS011;7908;51.688;7.130;2022-11-12T01:16:41;8.87;;;5.00;;
15616;SDS011;7908;51.688;7.130;2022-11-12T01:19:10;9.07;;;4.83;;
15616;SDS011;7908;51.688;7.130;2022-11-12T01:21:40;5.93;;;4.10;;
15616;SDS011;7908;51.688;7.130;2022-11-12T01:24:10;6.27;;;4.13;;
15616;SDS011;7908;51.688;7.130;2022-11-12T01:26:39;7.23;;;4.30;;
15616;SDS011;7908;51.688;7.130;2022-11-12T01:29:09;7.30;;;4.67;;
15616;SDS011;7908;51.688;7.130;2022-11-12T01:31:39;8.17;;;5.17;;
15616;SDS011;7908;51.688;7.130;2022-11-12T01:34:10;8.00;;;4.67;;
15616;SDS011;7908;51.688;7.130;2022-11-12T01:36:39;10.00;;;5.27;;
15616;SDS011;7908;51.688;7.130;2022-11-12T01:39:09;9.23;;;5.63;;
15616;SDS011;7908;51.688;7.130;2022-11-12T01:41:39;8.73;;;5.13;;
15616;SDS011;7908;51.688;7.130;2022-11-12T01:44:09;10.13;;;4.37;;
15616;SDS011;7908;51.688;7.130;2022-11-12T01:46:44;7.80;;;4.60;;
15616;SDS011;7908;51.688;7.130;2022-11-12T01:49:25;9.37;;;4.57;;
15616;SDS011;7908;51.688;7.130;2022-11-12T01:52:00;6.70;;;4.03;;
15616;SDS011;7908;51.688;7.130;2022-11-12T01:54:38;8.57;;;5.33;;
15616;SDS011;7908;51.688;7.130;2022-11-12T01:57:07;8.90;;;5.13;;
15616;SDS011;7908;51.688;7.130;2022-11-12T01:59:40;7.43;;;5.37;;
15616;SDS011;7908;51.688;7.130;2022-11-12T02:02:17;8.47;;;4.53;;
15616;SDS011;7908;51.688;7.130;2022-11-12T02:04:46;4.90;;;3.90;;
15616;SDS011;7908;51.688;7.130;2022-11-12T02:07:17;7.07;;;4.13;;
15616;SDS011;7908;51.688;7.130;2022-11-12T02:09:46;6.40;;;3.63;;
15616;SDS011;7908;51.688;7.130;2022-11-12T02:12:17;6.43;;;3.77;;
15616;SDS011;7908;51.688;7.130;2022-11-12T02:14:59;7.30;;;4.87;;
15616;SDS011;7908;51.688;7.130;2022-11-12T02:17:30;7.33;;;4.47;;
15616;SDS011;7908;51.688;7.130;2022-11-12T02:19:59;6.73;;;4.50;;
15616;SDS011;7908;51.688;7.130;2022-11-12T02:22:29;5.77;;;4.10;;
15616;SDS011;7908;51.688;7.130;2022-11-12T02:24:58;5.60;;;4.10;;
15616;SDS011;7908;51.688;7.130;2022-11-12T02:27:27;6.33;;;4.47;;
15616;SDS011;7908;51.688;7.130;2022-11-12T02:29:57;7.33;;;5.00;;
15616;SDS011;7908;51.688;7.130;2022-11-12T02:32:26;7.53;;;4.13;;
15616;SDS011;7908;51.688;7.130;2022-11-12T02:34:58;5.53;;;4.10;;
15616;SDS011;7908;51.688;7.130;2022-11-12T02:37:31;7.33;;;3.97;;
15616;SDS011;7908;51.688;7.130;2022-11-12T02:40:00;4.43;;;3.27;;
15616;SDS011;7908;51.688;7.130;2022-11-12T02:42:28;5.37;;;3.37;;
15616;SDS011;7908;51.688;7.130;2022-11-12T02:45:04;7.50;;;3.13;;
15616;SDS011;7908;51.688;7.130;2022-11-12T02:47:33;7.60;;;3.37;;
15616;SDS011;7908;51.688;7.130;2022-11-12T02:50:02;4.87;;;3.40;;
15616;SDS011;7908;51.688;7.130;2022-11-12T02:52:33;4.20;;;3.17;;
15616;SDS011;7908;51.688;7.130;2022-11-12T02:55:04;4.13;;;3.30;;
15616;SDS011;7908;51.688;7.130;2022-11-12T02:57:34;4.63;;;3.37;;
15616;SDS011;7908;51.688;7.130;2022-11-12T03:00:05;5.30;;;3.80;;
15616;SDS011;7908;51.688;7.130;2022-11-12T03:02:39;6.20;;;3.03;;
15616;SDS011;7908;51.688;7.130;2022-11-12T03:05:25;3.60;;;2.63;;
15616;SDS011;7908;51.688;7.130;2022-11-12T03:07:56;6.00;;;3.13;;
15616;SDS011;7908;51.688;7.130;2022-11-12T03:10:27;3.97;;;2.80;;
15616;SDS011;7908;51.688;7.130;2022-11-12T03:12:57;3.87;;;2.90;;
15616;SDS011;7908;51.688;7.130;2022-11-12T03:15:27;5.20;;;2.93;;
15616;SDS011;7908;51.688;7.130;2022-11-12T03:17:57;6.40;;;3.83;;
15616;SDS011;7908;51.688;7.130;2022-11-12T03:20:26;7.37;;;3.07;;
15616;SDS011;7908;51.688;7.130;2022-11-12T03:22:59;11.50;;;6.73;;
15616;SDS011;7908;51.688;7.130;2022-11-12T03:25:29;5.57;;;3.57;;
15616;SDS011;7908;51.688;7.130;2022-11-12T03:27:58;6.93;;;4.60;;
15616;SDS011;7908;51.688;7.130;2022-11-12T03:30:28;7.43;;;3.47;;
15616;SDS011;7908;51.688;7.130;2022-11-12T03:32:59;7.10;;;3.77;;
15616;SDS011;7908;51.688;7.130;2022-11-12T03:35:28;5.80;;;3.60;;
15616;SDS011;7908;51.688;7.130;2022-11-12T03:37:59;7.50;;;3.87;;
15616;SDS011;7908;51.688;7.130;2022-11-12T03:40:28;6.67;;;3.77;;
15616;SDS011;7908;51.688;7.130;2022-11-12T03:42:57;7.17;;;3.70;;
15616;SDS011;7908;51.688;7.130;2022-11-12T03:45:31;5.30;;;3.43;;
15616;SDS011;7908;51.688;7.130;2022-11-12T03:48:00;6.10;;;3.33;;
15616;SDS011;7908;51.688;7.130;2022-11-12T03:50:28;6.10;;;3.53;;
15616;SDS011;7908;51.688;7.130;2022-11-12T03:52:58;8.03;;;3.67;;
15616;SDS011;7908;51.688;7.130;2022-11-12T03:55:28;4.63;;;3.30;;
15616;SDS011;7908;51.688;7.130;2022-11-12T03:57:56;7.10;;;4.07;;
15616;SDS011;7908;51.688;7.130;2022-11-12T04:00:26;5.67;;;3.93;;
15616;SDS011;7908;51.688;7.130;2022-11-12T04:02:55;8.20;;;3.70;;
15616;SDS011;7908;51.688;7.130;2022-11-12T04:05:25;7.10;;;4.13;;
15616;SDS011;7908;51.688;7.130;2022-11-12T04:08:13;8.63;;;3.67;;
15616;SDS011;7908;51.688;7.130;2022-11-12T04:11:00;9.40;;;4.50;;
15616;SDS011;7908;51.688;7.130;2022-11-12T04:13:30;6.90;;;4.30;;
15616;SDS011;7908;51.688;7.130;2022-11-12T04:15:59;6.00;;;3.97;;
15616;SDS011;7908;51.688;7.130;2022-11-12T04:18:48;6.07;;;3.93;;
15616;SDS011;7908;51.688;7.130;2022-11-12T04:21:35;7.13;;;3.80;;
15616;SDS011;7908;51.688;7.130;2022-11-12T04:24:19;5.23;;;3.30;;
15616;SDS011;7908;51.688;7.130;2022-11-12T04:27:11;4.50;;;3.57;;
15616;SDS011;7908;51.688;7.130;2022-11-12T04:29:41;5.80;;;3.40;;
15616;SDS011;7908;51.688;7.130;2022-11-12T04:32:28;6.80;;;3.83;;
15616;SDS011;7908;51.688;7.130;2022-11-12T04:34:57;5.03;;;3.83;;
15616;SDS011;7908;51.688;7.130;2022-11-12T04:37:27;7.03;;;3.80;;
15616;SDS011;7908;51.688;7.130;2022-11-12T04:40:12;5.53;;;3.37;;
15616;SDS011;7908;51.688;7.130;2022-11-12T04:43:00;5.33;;;3.50;;
15616;SDS011;7908;51.688;7.130;2022-11-12T04:45:46;5.37;;;3.43;;
15616;SDS011;7908;51.688;7.130;2022-11-12T04:48:18;8.50;;;3.93;;
15616;SDS011;7908;51.688;7.130;2022-11-12T04:50:48;7.30;;;4.03;;
15616;SDS011;7908;51.688;7.130;2022-11-12T04:53:20;7.90;;;4.83;;
15616;SDS011;7908;51.688;7.130;2022-11-12T04:55:50;6.30;;;3.20;;
15616;SDS011;7908;51.688;7.130;2022-11-12T04:58:20;5.73;;;4.17;;
15616;SDS011;7908;51.688;7.130;2022-11-12T05:00:49;5.63;;;3.37;;
15616;SDS011;7908;51.688;7.130;2022-11-12T05:03:18;839.77;;;774.93;;
15616;SDS011;7908;51.688;7.130;2022-11-12T05:05:46;5.50;;;3.77;;
15616;SDS011;7908;51.688;7.130;2022-11-12T05:08:15;8.33;;;3.97;;
15616;SDS011;7908;51.688;7.130;2022-11-12T05:10:44;5.20;;;3.67;;
15616;SDS011;7908;51.688;7.130;2022-11-12T05:13:14;8.20;;;5.87;;
15616;SDS011;7908;51.688;7.130;2022-11-12T05:15:42;6.47;;;5.13;;
15616;SDS011;7908;51.688;7.130;2022-11-12T05:18:11;42.13;;;38.27;;
15616;SDS011;7908;51.688;7.130;2022-11-12T05:20:39;8.70;;;7.67;;
15616;SDS011;7908;51.688;7.130;2022-11-12T05:23:08;6.77;;;3.30;;
15616;SDS011;7908;51.688;7.130;2022-11-12T05:25:37;10.83;;;6.03;;
15616;SDS011;7908;51.688;7.130;2022-11-12T05:28:05;753.77;;;695.37;;
15616;SDS011;7908;51.688;7.130;2022-11-12T05:30:35;10.43;;;9.37;;
15616;SDS011;7908;51.688;7.130;2022-11-12T05:33:04;7.10;;;4.73;;
15616;SDS011;7908;51.688;7.130;2022-11-12T05:35:32;8.60;;;6.17;;
15616;SDS011;7908;51.688;7.130;2022-11-12T05:38:01;3.90;;;2.80;;
15616;SDS011;7908;51.688;7.130;2022-11-12T05:40:30;6.43;;;3.70;;
15616;SDS011;7908;51.688;7.130;2022-11-12T05:42:58;7.17;;;5.33;;
15616;SDS011;7908;51.688;7.130;2022-11-12T05:45:27;4.87;;;2.77;;
15616;SDS011;7908;51.688;7.130;2022-11-12T05:47:57;4.70;;;3.00;;
15616;SDS011;7908;51.688;7.130;2022-11-12T05:50:25;144.77;;;133.20;;
15616;SDS011;7908;51.688;7.130;2022-11-12T05:53:10;921.70;;;847.53;;
15616;SDS011;7908;51.688;7.130;2022-11-12T05:55:39;7.33;;;4.10;;
15616;SDS011;7908;51.688;7.130;2022-11-12T05:58:08;1377.23;;;999.90;;
15616;SDS011;7908;51.688;7.130;2022-11-12T06:00:36;510.37;;;473.87;;
15616;SDS011;7908;51.688;7.130;2022-11-12T06:03:07;41.57;;;38.47;;
15616;SDS011;7908;51.688;7.130;2022-11-12T06:05:36;36.33;;;33.07;;
15616;SDS011;7908;51.688;7.130;2022-11-12T06:08:05;6.97;;;4.87;;
15616;SDS011;7908;51.688;7.130;2022-11-12T06:10:34;5.57;;;3.10;;
15616;SDS011;7908;51.688;7.130;2022-11-12T06:13:02;7.40;;;5.80;;
15616;SDS011;7908;51.688;7.130;2022-11-12T06:15:31;4.60;;;2.93;;
15616;SDS011;7908;51.688;7.130;2022-11-12T06:18:06;1343.60;;;999.90;;
15616;SDS011;7908;51.688;7.130;2022-11-12T06:20:35;1367.80;;;999.90;;
15616;SDS011;7908;51.688;7.130;2022-11-12T06:23:03;6.97;;;3.73;;
15616;SDS011;7908;51.688;7.130;2022-11-12T06:25:33;1279.23;;;999.90;;
15616;SDS011;7908;51.688;7.130;2022-11-12T06:28:02;1348.03;;;999.90;;
15616;SDS011;7908;51.688;7.130;2022-11-12T06:30:30;10.90;;;5.90;;
15616;SDS011;7908;51.688;7.130;2022-11-12T06:32:59;1367.17;;;999.90;;
15616;SDS011;7908;51.688;7.130;2022-11-12T06:35:29;42.67;;;39.00;;
15616;SDS011;7908;51.688;7.130;2022-11-12T06:37:58;26.87;;;24.17;;
15616;SDS011;7908;51.688;7.130;2022-11-12T06:40:26;1371.43;;;999.90;;
15616;SDS011;7908;51.688;7.130;2022-11-12T06:42:55;1324.53;;;999.90;;
15616;SDS011;7908;51.688;7.130;2022-11-12T06:45:24;1292.13;;;999.90;;
15616;SDS011;7908;51.688;7.130;2022-11-12T06:47:56;5.27;;;3.27;;
15616;SDS011;7908;51.688;7.130;2022-11-12T06:50:25;1289.70;;;999.90;;
15616;SDS011;7908;51.688;7.130;2022-11-12T06:52:57;13.83;;;11.27;;
15616;SDS011;7908;51.688;7.130;2022-11-12T06:55:26;1144.53;;;999.90;;
15616;SDS011;7908;51.688;7.130;2022-11-12T06:57:55;669.80;;;550.30;;
15616;SDS011;7908;51.688;7.130;2022-11-12T07:00:24;1125.23;;;992.27;;
15616;SDS011;7908;51.688;7.130;2022-11-12T07:02:53;1310.77;;;999.90;;
15616;SDS011;7908;51.688;7.130;2022-11-12T07:05:21;4.90;;;3.50;;
15616;SDS011;7908;51.688;7.130;2022-11-12T07:07:50;10.40;;;6.00;;
15616;SDS011;7908;51.688;7.130;2022-11-12T07:10:20;120.53;;;111.40;;
15616;SDS011;7908;51.688;7.130;2022-11-12T07:12:48;746.77;;;682.93;;
15616;SDS011;7908;51.688;7.130;2022-11-12T07:15:20;14.00;;;8.17;;
15616;SDS011;7908;51.688;7.130;2022-11-12T07:17:49;1236.67;;;999.90;;
15616;SDS011;7908;51.688;7.130;2022-11-12T07:20:17;1293.57;;;999.90;;
15616;SDS011;7908;51.688;7.130;2022-11-12T07:22:46;555.80;;;496.60;;
15616;SDS011;7908;51.688;7.130;2022-11-12T07:25:14;9.73;;;5.43;;
15616;SDS011;7908;51.688;7.130;2022-11-12T07:27:44;10.57;;;6.27;;
15616;SDS011;7908;51.688;7.130;2022-11-12T07:30:13;14.33;;;7.07;;
15616;SDS011;7908;51.688;7.130;2022-11-12T07:32:42;1198.80;;;999.90;;
15616;SDS011;7908;51.688;7.130;2022-11-12T07:35:17;6.40;;;4.33;;
15616;SDS011;7908;51.688;7.130;2022-11-12T07:37:45;1016.00;;;936.10;;
15616;SDS011;7908;51.688;7.130;2022-11-12T07:40:14;10.60;;;6.30;;
15616;SDS011;7908;51.688;7.130;2022-11-12T07:42:44;859.63;;;785.27;;
15616;SDS011;7908;51.688;7.130;2022-11-12T07:45:13;1278.17;;;999.90;;
15616;SDS011;7908;51.688;7.130;2022-11-12T07:47:42;1284.23;;;999.90;;
15616;SDS011;7908;51.688;7.130;2022-11-12T07:50:10;1018.37;;;936.80;;
15616;SDS011;7908;51.688;7.130;2022-11-12T07:52:39;991.27;;;906.63;;
15616;SDS011;7908;51.688;7.130;2022-11-12T07:55:08;1267.97;;;999.90;;
15616;SDS011;7908;51.688;7.130;2022-11-12T07:57:37;952.03;;;866.50;;
15616;SDS011;7908;51.688;7.130;2022-11-12T08:00:07;6.00;;;3.93;;
15616;SDS011;7908;51.688;7.130;2022-11-12T08:02:37;673.17;;;614.90;;
15616;SDS011;7908;51.688;7.130;2022-11-12T08:05:06;1362.00;;;999.90;;
15616;SDS011;7908;51.688;7.130;2022-11-12T08:07:44;1337.27;;;999.90;;
15616;SDS011;7908;51.688;7.130;2022-11-12T08:10:12;1340.07;;;999.90;;
15616;SDS011;7908;51.688;7.130;2022-11-12T08:12:42;1349.83;;;999.90;;
15616;SDS011;7908;51.688;7.130;2022-11-12T08:15:12;1384.57;;;999.90;;
15616;SDS011;7908;51.688;7.130;2022-11-12T08:17:40;1389.97;;;999.90;;
15616;SDS011;7908;51.688;7.130;2022-11-12T08:20:09;1381.83;;;999.90;;
15616;SDS011;7908;51.688;7.130;2022-11-12T08:22:39;6.23;;;5.63;;
15616;SDS011;7908;51.688;7.130;2022-11-12T08:25:14;1232.50;;;999.90;;
15616;SDS011;7908;51.688;7.130;2022-11-12T08:27:44;13.63;;;9.87;;
15616;SDS011;7908;51.688;7.130;2022-11-12T08:30:15;401.00;;;364.33;;
15616;SDS011;7908;51.688;7.130;2022-11-12T08:32:43;1026.37;;;926.13;;
15616;SDS011;7908;51.688;7.130;2022-11-12T08:35:12;558.73;;;506.47;;
15616;SDS011;7908;51.688;7.130;2022-11-12T08:37:41;1338.47;;;999.90;;
15616;SDS011;7908;51.688;7.130;2022-11-12T08:40:10;318.13;;;290.80;;
15616;SDS011;7908;51.688;7.130;2022-11-12T08:42:39;51.33;;;47.40;;
15616;SDS011;7908;51.688;7.130;2022-11-12T08:45:08;9.67;;;7.87;;
15616;SDS011;7908;51.688;7.130;2022-11-12T08:47:39;10.13;;;6.50;;
15616;SDS011;7908;51.688;7.130;2022-11-12T08:50:08;281.33;;;258.40;;
15616;SDS011;7908;51.688;7.130;2022-11-12T08:52:37;12.83;;;8.10;;
15616;SDS011;7908;51.688;7.130;2022-11-12T08:55:06;39.47;;;27.17;;
15616;SDS011;7908;51.688;7.130;2022-11-12T08:57:38;1354.43;;;999.90;;
15616;SDS011;7908;51.688;7.130;2022-11-12T09:00:08;1294.27;;;999.90;;
15616;SDS011;7908;51.688;7.130;2022-11-12T09:02:40;9.40;;;8.43;;
15616;SDS011;7908;51.688;7.130;2022-11-12T09:05:12;67.20;;;62.17;;
15616;SDS011;7908;51.688;7.130;2022-11-12T09:07:41;440.67;;;399.07;;
15616;SDS011;7908;51.688;7.130;2022-11-12T09:10:16;1374.87;;;999.90;;
15616;SDS011;7908;51.688;7.130;2022-11-12T09:12:49;1332.10;;;999.90;;
15616;SDS011;7908;51.688;7.130;2022-11-12T09:15:18;1187.13;;;999.90;;
15616;SDS011;7908;51.688;7.130;2022-11-12T09:18:07;1290.80;;;999.90;;
15616;SDS011;7908;51.688;7.130;2022-11-12T09:20:38;1077.77;;;984.37;;
15616;SDS011;7908;51.688;7.130;2022-11-12T09:23:09;14.10;;;9.13;;
15616;SDS011;7908;51.688;7.130;2022-11-12T09:25:39;1251.97;;;999.90;;
15616;SDS011;7908;51.688;7.130;2022-11-12T09:28:08;56.53;;;34.00;;
15616;SDS011;7908;51.688;7.130;2022-11-12T09:30:40;1382.43;;;999.90;;
15616;SDS011;7908;51.688;7.130;2022-11-12T09:33:13;1293.97;;;999.90;;
15616;SDS011;7908;51.688;7.130;2022-11-12T09:35:42;1338.10;;;999.90;;
15616;SDS011;7908;51.688;7.130;2022-11-12T09:38:12;1368.77;;;999.90;;
15616;SDS011;7908;51.688;7.130;2022-11-12T09:40:46;1386.30;;;999.90;;
15616;SDS011;7908;51.688;7.130;2022-11-12T09:43:28;1389.27;;;999.90;;
15616;SDS011;7908;51.688;7.130;2022-11-12T09:46:00;408.63;;;377.43;;
15616;SDS011;7908;51.688;7.130;2022-11-12T09:48:56;1354.17;;;999.90;;
15616;SDS011;7908;51.688;7.130;2022-11-12T09:51:31;1317.53;;;999.90;;
15616;SDS011;7908;51.688;7.130;2022-11-12T09:54:04;1289.80;;;999.90;;
15616;SDS011;7908;51.688;7.130;2022-11-12T09:56:40;320.60;;;293.30;;
15616;SDS011;7908;51.688;7.130;2022-11-12T09:59:10;1331.70;;;999.90;;
15616;SDS011;7908;51.688;7.130;2022-11-12T10:01:43;1293.10;;;999.90;;
15616;SDS011;7908;51.688;7.130;2022-11-12T10:04:33;43.43;;;22.63;;
15616;SDS011;7908;51.688;7.130;2022-11-12T10:07:19;13.07;;;10.60;;
15616;SDS011;7908;51.688;7.130;2022-11-12T10:09:58;988.47;;;907.70;;
15616;SDS011;7908;51.688;7.130;2022-11-12T10:12:34;1035.57;;;949.97;;
15616;SDS011;7908;51.688;7.130;2022-11-12T10:18:28;1216.13;;;999.90;;
15616;SDS011;7908;51.688;7.130;2022-11-12T10:21:08;68.60;;;63.87;;
15616;SDS011;7908;51.688;7.130;2022-11-12T10:23:42;1077.93;;;984.03;;
15616;SDS011;7908;51.688;7.130;2022-11-12T10:26:13;1219.37;;;999.90;;
15616;SDS011;7908;51.688;7.130;2022-11-12T10:28:44;1196.00;;;999.90;;
15616;SDS011;7908;51.688;7.130;2022-11-12T10:31:15;10.07;;;8.40;;
15616;SDS011;7908;51.688;7.130;2022-11-12T10:33:46;1219.20;;;999.90;;
15616;SDS011;7908;51.688;7.130;2022-11-12T10:36:21;1011.03;;;914.97;;
15616;SDS011;7908;51.688;7.130;2022-11-12T10:38:53;1158.30;;;999.90;;
15616;SDS011;7908;51.688;7.130;2022-11-12T10:41:24;1194.40;;;999.90;;
15616;SDS011;7908;51.688;7.130;2022-11-12T10:43:55;1113.77;;;998.40;;
15616;SDS011;7908;51.688;7.130;2022-11-12T10:46:25;1191.00;;;999.90;;
15616;SDS011;7908;51.688;7.130;2022-11-12T10:48:57;1152.83;;;999.90;;
15616;SDS011;7908;51.688;7.130;2022-11-12T10:51:31;1080.83;;;980.87;;
15616;SDS011;7908;51.688;7.130;2022-11-12T10:56:54;1087.17;;;984.37;;
15616;SDS011;7908;51.688;7.130;2022-11-12T10:59:23;875.87;;;787.67;;
15616;SDS011;7908;51.688;7.130;2022-11-12T11:01:53;1021.77;;;925.73;;
15616;SDS011;7908;51.688;7.130;2022-11-12T11:04:28;925.73;;;835.80;;
15616;SDS011;7908;51.688;7.130;2022-11-12T11:07:03;871.07;;;784.53;;
15616;SDS011;7908;51.688;7.130;2022-11-12T11:09:33;917.83;;;827.23;;
15616;SDS011;7908;51.688;7.130;2022-11-12T11:12:02;944.17;;;852.90;;
15616;SDS011;7908;51.688;7.130;2022-11-12T11:14:35;851.10;;;765.53;;
15616;SDS011;7908;51.688;7.130;2022-11-12T11:17:05;948.23;;;853.10;;
15616;SDS011;7908;51.688;7.130;2022-11-12T11:19:43;913.10;;;823.63;;
15616;SDS011;7908;51.688;7.130;2022-11-12T11:22:20;752.67;;;664.33;;
15616;SDS011;7908;51.688;7.130;2022-11-12T11:25:07;780.70;;;698.43;;
15616;SDS011;7908;51.688;7.130;2022-11-12T11:27:51;908.43;;;819.80;;
15616;SDS011;7908;51.688;7.130;2022-11-12T11:30:30;717.37;;;623.23;;
15616;SDS011;7908;51.688;7.130;2022-11-12T11:33:10;696.70;;;618.37;;
15616;SDS011;7908;51.688;7.130;2022-11-12T11:36:05;654.57;;;486.77;;
15616;SDS011;7908;51.688;7.130;2022-11-12T11:38:48;766.13;;;683.20;;
15616;SDS011;7908;51.688;7.130;2022-11-12T11:41:27;670.10;;;549.77;;
15616;SDS011;7908;51.688;7.130;2022-11-12T11:44:11;632.70;;;435.63;;
15616;SDS011;7908;51.688;7.130;2022-11-12T11:46:50;266.80;;;130.50;;
15616;SDS011;7908;51.688;7.130;2022-11-12T11:49:32;817.40;;;754.77;;
15616;SDS011;7908;51.688;7.130;2022-11-12T11:52:29;976.43;;;889.93;;
15616;SDS011;7908;51.688;7.130;2022-11-12T11:55:12;7.73;;;4.57;;
15616;SDS011;7908;51.688;7.130;2022-11-12T11:57:55;4.97;;;4.10;;
15616;SDS011;7908;51.688;7.130;2022-11-12T12:00:34;6.83;;;3.87;;
15616;SDS011;7908;51.688;7.130;2022-11-12T12:03:16;5.53;;;3.60;;
15616;SDS011;7908;51.688;7.130;2022-11-12T12:05:58;4.73;;;2.93;;
15616;SDS011;7908;51.688;7.130;2022-11-12T12:08:38;5.20;;;3.90;;
15616;SDS011;7908;51.688;7.130;2022-11-12T12:11:21;3.60;;;3.30;;
15616;SDS011;7908;51.688;7.130;2022-11-12T12:13:59;6.93;;;4.10;;
15616;SDS011;7908;51.688;7.130;2022-11-12T12:16:40;6.23;;;5.63;;
15616;SDS011;7908;51.688;7.130;2022-11-12T12:19:26;5.60;;;4.63;;
15616;SDS011;7908;51.688;7.130;2022-11-12T12:22:09;7.03;;;4.50;;
15616;SDS011;7908;51.688;7.130;2022-11-12T12:24:44;6.13;;;4.83;;
15616;SDS011;7908;51.688;7.130;2022-11-12T12:27:19;7.33;;;4.23;;
15616;SDS011;7908;51.688;7.130;2022-11-12T12:29:51;4.67;;;4.17;;
15616;SDS011;7908;51.688;7.130;2022-11-12T12:32:24;6.13;;;4.20;;
15616;SDS011;7908;51.688;7.130;2022-11-12T12:34:58;5.87;;;3.97;;
15616;SDS011;7908;51.688;7.130;2022-11-12T12:37:32;5.97;;;3.87;;
15616;SDS011;7908;51.688;7.130;2022-11-12T12:40:08;4.03;;;3.63;;
15616;SDS011;7908;51.688;7.130;2022-11-12T12:42:47;4.47;;;3.90;;
15616;SDS011;7908;51.688;7.130;2022-11-12T12:45:25;5.70;;;3.70;;
15616;SDS011;7908;51.688;7.130;2022-11-12T12:48:03;5.40;;;3.50;;
15616;SDS011;7908;51.688;7.130;2022-11-12T12:50:35;5.27;;;3.70;;
15616;SDS011;7908;51.688;7.130;2022-11-12T12:53:14;4.63;;;3.17;;
15616;SDS011;7908;51.688;7.130;2022-11-12T12:55:50;5.90;;;3.20;;
15616;SDS011;7908;51.688;7.130;2022-11-12T12:58:24;3.83;;;3.20;;
15616;SDS011;7908;51.688;7.130;2022-11-12T13:00:57;3.60;;;3.30;;
15616;SDS011;7908;51.688;7.130;2022-11-12T13:03:49;6.07;;;3.53;;
15616;SDS011;7908;51.688;7.130;2022-11-12T13:06:24;5.03;;;3.80;;
15616;SDS011;7908;51.688;7.130;2022-11-12T13:08:55;6.43;;;3.30;;
15616;SDS011;7908;51.688;7.130;2022-11-12T13:15:06;3.93;;;3.07;;
15616;SDS011;7908;51.688;7.130;2022-11-12T13:17:42;3.50;;;2.77;;
15616;SDS011;7908;51.688;7.130;2022-11-12T13:23:01;3.03;;;2.50;;
15616;SDS011;7908;51.688;7.130;2022-11-12T13:25:31;3.23;;;2.80;;
15616;SDS011;7908;51.688;7.130;2022-11-12T13:28:18;3.73;;;2.90;;
15616;SDS011;7908;51.688;7.130;2022-11-12T13:31:01;5.37;;;2.47;;
15616;SDS011;7908;51.688;7.130;2022-11-12T13:33:31;4.40;;;2.57;;
15616;SDS011;7908;51.688;7.130;2022-11-12T13:38:55;4.27;;;3.87;;
15616;SDS011;7908;51.688;7.130;2022-11-12T13:41:40;3.10;;;2.80;;
15616;SDS011;7908;51.688;7.130;2022-11-12T13:44:30;3.07;;;2.40;;
15616;SDS011;7908;51.688;7.130;2022-11-12T13:47:03;3.47;;;3.00;;
15616;SDS011;7908;51.688;7.130;2022-11-12T13:49:32;3.40;;;2.50;;
15616;SDS011;7908;51.688;7.130;2022-11-12T13:52:04;4.57;;;2.83;;
15616;SDS011;7908;51.688;7.130;2022-11-12T13:54:34;3.30;;;2.63;;
15616;SDS011;7908;51.688;7.130;2022-11-12T13:57:13;3.47;;;2.43;;
15616;SDS011;7908;51.688;7.130;2022-11-12T14:00:06;2.70;;;2.30;;
15616;SDS011;7908;51.688;7.130;2022-11-12T14:02:53;3.00;;;2.27;;
15616;SDS011;7908;51.688;7.130;2022-11-12T14:05:28;2.70;;;2.17;;
15616;SDS011;7908;51.688;7.130;2022-11-12T14:08:08;2.73;;;2.37;;
15616;SDS011;7908;51.688;7.130;2022-11-12T14:11:06;4.10;;;2.20;;
15616;SDS011;7908;51.688;7.130;2022-11-12T14:13:50;2.80;;;2.27;;
15616;SDS011;7908;51.688;7.130;2022-11-12T14:16:37;3.60;;;2.47;;
15616;SDS011;7908;51.688;7.130;2022-11-12T14:22:37;5.50;;;2.70;;
15616;SDS011;7908;51.688;7.130;2022-11-12T14:25:12;4.70;;;2.70;;
15616;SDS011;7908;51.688;7.130;2022-11-12T14:27:45;4.20;;;2.70;;
15616;SDS011;7908;51.688;7.130;2022-11-12T14:30:18;3.13;;;2.60;;
15616;SDS011;7908;51.688;7.130;2022-11-12T14:32:49;3.20;;;2.90;;
15616;SDS011;7908;51.688;7.130;2022-11-12T14:35:26;5.63;;;4.87;;
15616;SDS011;7908;51.688;7.130;2022-11-12T14:38:02;7.73;;;5.43;;
15616;SDS011;7908;51.688;7.130;2022-11-12T14:40:43;7.43;;;4.33;;
15616;SDS011;7908;51.688;7.130;2022-11-12T14:43:18;11.30;;;7.80;;
15616;SDS011;7908;51.688;7.130;2022-11-12T14:45:54;10.57;;;7.37;;
15616;SDS011;7908;51.688;7.130;2022-11-12T14:48:25;10.83;;;7.60;;
15616;SDS011;7908;51.688;7.130;2022-11-12T14:50:59;14.97;;;9.07;;
15616;SDS011;7908;51.688;7.130;2022-11-12T14:53:31;916.17;;;825.07;;
15616;SDS011;7908;51.688;7.130;2022-11-12T14:56:06;1018.73;;;920.37;;
15616;SDS011;7908;51.688;7.130;2022-11-12T14:58:40;1051.37;;;953.67;;
15616;SDS011;7908;51.688;7.130;2022-11-12T15:01:19;985.77;;;889.97;;
15616;SDS011;7908;51.688;7.130;2022-11-12T15:04:16;995.40;;;899.30;;
15616;SDS011;7908;51.688;7.130;2022-11-12T15:06:52;901.47;;;813.93;;
15616;SDS011;7908;51.688;7.130;2022-11-12T15:09:30;1181.47;;;999.90;;
15616;SDS011;7908;51.688;7.130;2022-11-12T15:12:02;1017.10;;;917.90;;
15616;SDS011;7908;51.688;7.130;2022-11-12T15:14:34;1009.37;;;911.30;;
15616;SDS011;7908;51.688;7.130;2022-11-12T15:17:03;889.90;;;804.13;;
15616;SDS011;7908;51.688;7.130;2022-11-12T15:19:32;1167.17;;;999.90;;
15616;SDS011;7908;51.688;7.130;2022-11-12T15:22:04;1194.57;;;999.90;;
15616;SDS011;7908;51.688;7.130;2022-11-12T15:24:34;1210.60;;;999.90;;
15616;SDS011;7908;51.688;7.130;2022-11-12T15:30:07;4.53;;;3.60;;
15616;SDS011;7908;51.688;7.130;2022-11-12T15:32:42;4.50;;;3.73;;
15616;SDS011;7908;51.688;7.130;2022-11-12T15:35:19;5.03;;;3.43;;